Time;durP1;ratioP1;P1;durP2;ratioP2;P2;SDS_P1;SDS_P2;PMS_P1;PMS_P2;Temp;Humidity;BMP_temperature;BMP_pressure;BME280_temperature;BME280_humidity;BME280_pressure;Samples;Min_cycle;Max_cycle;Signal;HPM_P1;HPM_P2
2023/03/12 00:00:39;;;;;;;7.82;4.45;;;0.80;92.40;;;;;;5071524;28;20041;-74
2023/03/12 00:03:05;;;;;;;11.52;7.50;;;0.80;92.40;;;;;;5071381;28;20119;-74
2023/03/12 00:05:30;;;;;;;11.45;6.75;;;0.80;92.40;;;;;;5071517;28;20078;-73
2023/03/12 00:07:58;;;;;;;9.15;4.22;;;0.80;92.30;;;;;;5054743;28;20044;-74
2023/03/12 00:10:27;;;;;;;7.82;4.32;;;0.80;92.40;;;;;;5071604;28;20049;-75
2023/03/12 00:12:53;;;;;;;6.00;4.57;;;0.70;92.30;;;;;;5055003;28;20047;-74
2023/03/12 00:15:19;;;;;;;11.32;4.45;;;0.80;92.40;;;;;;5071521;28;20044;-74
2023/03/12 00:17:45;;;;;;;8.80;4.47;;;0.70;92.20;;;;;;5071346;28;20063;-75
2023/03/12 00:20:11;;;;;;;9.30;4.60;;;0.80;92.20;;;;;;5071189;28;20051;-73
2023/03/12 00:22:37;;;;;;;8.40;4.57;;;0.80;92.00;;;;;;5071243;28;20050;-73
2023/03/12 00:25:04;;;;;;;7.78;4.60;;;0.80;92.10;;;;;;5054599;28;20123;-74
2023/03/12 00:27:30;;;;;;;12.27;4.18;;;0.70;92.20;;;;;;5054692;28;20098;-74
2023/03/12 00:29:56;;;;;;;9.68;5.20;;;0.70;92.20;;;;;;5054562;28;20049;-74
2023/03/12 00:32:21;;;;;;;9.48;5.57;;;0.70;92.10;;;;;;5071062;28;20072;-73
2023/03/12 00:34:51;;;;;;;8.60;5.72;;;0.70;92.00;;;;;;5054978;28;20091;-74
2023/03/12 00:37:17;;;;;;;11.95;5.95;;;0.70;92.00;;;;;;5054834;28;20137;-74
2023/03/12 00:39:43;;;;;;;8.30;6.40;;;0.70;92.00;;;;;;5071255;28;20512;-75
2023/03/12 00:42:09;;;;;;;9.45;6.93;;;0.70;91.90;;;;;;5054665;28;20396;-76
2023/03/12 00:44:34;;;;;;;10.23;6.90;;;0.70;91.90;;;;;;5054890;28;20048;-74
2023/03/12 00:47:00;;;;;;;9.90;6.90;;;0.70;91.80;;;;;;5072428;28;20431;-74
2023/03/12 00:49:26;;;;;;;11.32;6.95;;;0.70;91.90;;;;;;5074592;28;20097;-74
2023/03/12 00:51:52;;;;;;;12.00;7.63;;;0.60;92.00;;;;;;5057911;28;20048;-73
2023/03/12 00:54:19;;;;;;;10.50;7.30;;;0.60;91.90;;;;;;5074629;28;20148;-73
2023/03/12 00:56:45;;;;;;;9.68;7.68;;;0.60;91.90;;;;;;5074497;28;20061;-74
2023/03/12 00:59:12;;;;;;;11.90;8.77;;;0.60;91.80;;;;;;5091307;28;20044;-74
2023/03/12 01:01:38;;;;;;;15.82;8.50;;;0.60;91.80;;;;;;5074399;28;20149;-74
2023/03/12 01:04:04;;;;;;;10.43;7.57;;;0.60;91.80;;;;;;5074625;28;20090;-73
2023/03/12 01:06:29;;;;;;;11.07;7.78;;;0.60;91.70;;;;;;5074294;28;20083;-74
2023/03/12 01:08:55;;;;;;;9.85;7.05;;;0.60;91.70;;;;;;5074116;28;20052;-74
2023/03/12 01:11:21;;;;;;;15.45;7.53;;;0.50;91.70;;;;;;5074174;28;20044;-73
2023/03/12 01:13:48;;;;;;;11.20;7.60;;;0.50;91.70;;;;;;5074232;28;20518;-75
2023/03/12 01:16:14;;;;;;;17.13;8.70;;;0.50;91.70;;;;;;5074191;28;20115;-73
2023/03/12 01:18:40;;;;;;;13.90;8.20;;;0.50;91.80;;;;;;5057786;28;20083;-74
2023/03/12 01:21:06;;;;;;;10.70;7.47;;;0.50;91.60;;;;;;5057478;28;20566;-73
2023/03/12 01:23:31;;;;;;;12.48;8.02;;;0.50;91.60;;;;;;5073990;28;20043;-73
2023/03/12 01:25:58;;;;;;;11.63;7.00;;;0.50;91.60;;;;;;5057324;28;20036;-74
2023/03/12 01:28:25;;;;;;;11.93;7.45;;;0.60;91.50;;;;;;5074151;28;20083;-72
2023/03/12 01:30:52;;;;;;;11.45;7.53;;;0.60;91.60;;;;;;5073865;28;20045;-74
2023/03/12 01:33:18;;;;;;;11.15;6.97;;;0.50;91.50;;;;;;5073749;28;20036;-74
2023/03/12 01:35:44;;;;;;;13.02;8.45;;;0.50;91.60;;;;;;5073912;28;20378;-74
2023/03/12 01:38:13;;;;;;;12.57;7.32;;;0.60;91.60;;;;;;5073602;28;20028;-74
2023/03/12 01:40:40;;;;;;;11.80;6.78;;;0.50;91.50;;;;;;5073636;28;20067;-73
2023/03/12 01:43:23;;;;;;;9.15;6.28;;;0.60;91.50;;;;;;5073573;28;20036;-74
2023/03/12 01:45:58;;;;;;;10.32;6.20;;;0.50;91.50;;;;;;5073931;28;20443;-74
2023/03/12 01:48:24;;;;;;;11.30;6.60;;;0.50;91.50;;;;;;5073533;28;20041;-74
2023/03/12 01:50:50;;;;;;;10.77;6.85;;;0.60;91.50;;;;;;5073608;28;20500;-73
2023/03/12 01:53:16;;;;;;;10.63;6.75;;;0.50;91.60;;;;;;5073238;28;20072;-73
2023/03/12 01:55:42;;;;;;;9.93;6.55;;;0.60;91.70;;;;;;5073273;28;20079;-74
2023/03/12 01:58:08;;;;;;;8.85;6.50;;;0.60;91.70;;;;;;5055643;28;20389;-74
2023/03/12 02:00:35;;;;;;;10.30;6.70;;;0.60;91.60;;;;;;5073293;28;20051;-74
2023/03/12 02:03:05;;;;;;;10.70;6.35;;;0.60;91.60;;;;;;5072898;28;20056;-73
2023/03/12 02:05:42;;;;;;;11.07;6.20;;;0.60;91.40;;;;;;5073252;28;20048;-74
2023/03/12 02:08:13;;;;;;;9.05;6.47;;;0.60;91.50;;;;;;5073287;28;20461;-74
2023/03/12 02:10:38;;;;;;;9.75;6.10;;;0.70;91.40;;;;;;5073494;28;20052;-75
2023/03/12 02:13:05;;;;;;;8.25;5.45;;;0.70;91.50;;;;;;5073036;28;20047;-74
2023/03/12 02:15:33;;;;;;;8.32;5.45;;;0.70;91.40;;;;;;5073244;28;20405;-74
2023/03/12 02:18:01;;;;;;;9.00;5.30;;;0.70;91.40;;;;;;5072803;28;20037;-74
2023/03/12 02:20:57;;;;;;;10.80;5.75;;;0.70;91.50;;;;;;5073218;28;20071;-75
2023/03/12 02:23:30;;;;;;;8.95;5.15;;;0.80;91.40;;;;;;5072904;28;20119;-74
2023/03/12 02:25:57;;;;;;;8.07;5.10;;;0.80;91.50;;;;;;5072929;28;20039;-75
2023/03/12 02:28:26;;;;;;;9.13;4.93;;;0.80;91.50;;;;;;5072925;28;20113;-74
2023/03/12 02:30:57;;;;;;;11.07;5.80;;;0.80;91.50;;;;;;5072945;28;20047;-74
2023/03/12 02:33:23;;;;;;;7.00;5.05;;;0.80;91.40;;;;;;5072804;28;20043;-75
2023/03/12 02:35:50;;;;;;;8.65;5.05;;;0.80;91.40;;;;;;5056247;28;20033;-73
2023/03/12 02:38:39;;;;;;;9.98;5.30;;;0.80;91.30;;;;;;5072837;28;20392;-74
2023/03/12 02:41:22;;;;;;;8.70;5.38;;;0.90;91.40;;;;;;5072605;28;20048;-73
2023/03/12 02:43:56;;;;;;;9.35;5.57;;;0.80;91.30;;;;;;5072515;28;20043;-74
2023/03/12 02:46:22;;;;;;;;;;;0.90;91.30;;;;;;5073235;28;20043;-74
2023/03/12 02:48:48;;;;;;;9.25;6.78;;;0.90;91.40;;;;;;5073799;28;20364;-73
2023/03/12 02:51:14;;;;;;;9.93;5.60;;;0.90;91.40;;;;;;5092648;28;20097;-76
2023/03/12 02:53:40;;;;;;;12.32;6.03;;;0.90;91.60;;;;;;5075797;28;20123;-73
2023/03/12 02:56:06;;;;;;;7.75;5.03;;;0.90;91.50;;;;;;5075875;28;20036;-74
2023/03/12 02:58:31;;;;;;;7.47;4.68;;;0.90;91.30;;;;;;5075831;28;20078;-74
2023/03/12 03:00:57;;;;;;;7.00;5.10;;;0.90;91.20;;;;;;5092445;28;20120;-74
2023/03/12 03:03:23;;;;;;;8.02;5.05;;;1.00;91.20;;;;;;5092102;28;20048;-73
2023/03/12 03:05:49;;;;;;;11.05;5.53;;;0.90;91.30;;;;;;5075597;28;20055;-74
2023/03/12 03:08:15;;;;;;;9.13;5.30;;;0.90;91.30;;;;;;5092338;28;20050;-73
2023/03/12 03:10:40;;;;;;;8.65;5.72;;;0.90;91.20;;;;;;5075071;28;20048;-74
2023/03/12 03:13:07;;;;;;;6.10;4.35;;;0.90;91.20;;;;;;5092198;28;20476;-75
2023/03/12 03:15:32;;;;;;;8.90;5.63;;;0.90;91.20;;;;;;5092254;28;20067;-74
2023/03/12 03:17:58;;;;;;;9.35;4.70;;;0.90;91.20;;;;;;5092298;28;20075;-74
2023/03/12 03:20:25;;;;;;;6.45;4.78;;;0.90;91.10;;;;;;5092214;28;20492;-75
2023/03/12 03:22:51;;;;;;;8.88;5.93;;;0.90;91.10;;;;;;5075358;28;20575;-73
2023/03/12 03:25:21;;;;;;;10.15;5.18;;;0.90;91.10;;;;;;5058855;28;20122;-74
2023/03/12 03:27:46;;;;;;;8.40;5.05;;;0.90;91.00;;;;;;5092111;28;20131;-75
2023/03/12 03:30:12;;;;;;;7.65;4.50;;;0.90;91.00;;;;;;5075246;28;20127;-73
2023/03/12 03:32:38;;;;;;;7.70;5.15;;;1.00;91.00;;;;;;5092289;28;20043;-73
2023/03/12 03:35:04;;;;;;;7.15;4.63;;;0.90;90.90;;;;;;5092275;28;20044;-74
2023/03/12 03:37:29;;;;;;;7.72;5.05;;;0.90;90.80;;;;;;5058501;28;20045;-74
2023/03/12 03:39:55;;;;;;;5.78;4.40;;;0.90;90.80;;;;;;5092130;28;20112;-74
2023/03/12 03:42:21;;;;;;;7.78;4.47;;;0.90;90.70;;;;;;5092000;28;20036;-74
2023/03/12 03:44:47;;;;;;;5.75;4.80;;;1.00;90.70;;;;;;5075258;28;20539;-75
2023/03/12 03:47:12;;;;;;;7.53;4.30;;;0.90;90.70;;;;;;5091903;28;20088;-73
2023/03/12 03:49:38;;;;;;;8.70;4.93;;;1.00;90.60;;;;;;5075156;28;20119;-75
2023/03/12 03:52:05;;;;;;;7.38;4.60;;;1.00;90.60;;;;;;5075000;28;20177;-75
2023/03/12 03:54:30;;;;;;;9.27;4.50;;;1.00;90.50;;;;;;5092038;28;20055;-74
2023/03/12 03:56:56;;;;;;;8.60;4.50;;;1.00;90.40;;;;;;5075015;28;20476;-75
2023/03/12 03:59:22;;;;;;;7.97;4.18;;;1.00;90.30;;;;;;5091765;28;20040;-75
2023/03/12 04:01:47;;;;;;;7.38;4.15;;;1.00;90.30;;;;;;5058267;28;20047;-75
2023/03/12 04:04:13;;;;;;;8.32;4.95;;;1.00;90.10;;;;;;5074800;28;20052;-75
2023/03/12 04:06:39;;;;;;;7.65;4.32;;;1.00;90.10;;;;;;5058412;28;20051;-75
2023/03/12 04:09:05;;;;;;;10.15;4.53;;;1.00;90.00;;;;;;5091954;28;20043;-74
2023/03/12 04:11:31;;;;;;;8.23;4.50;;;1.00;90.00;;;;;;5091970;28;20066;-74
2023/03/12 04:13:57;;;;;;;7.72;5.03;;;1.00;89.90;;;;;;5075060;28;20472;-75
2023/03/12 04:16:23;;;;;;;6.57;4.57;;;1.10;89.80;;;;;;5074835;28;20475;-74
2023/03/12 04:18:49;;;;;;;8.15;4.43;;;1.00;89.70;;;;;;5091675;28;20076;-75
2023/03/12 04:21:15;;;;;;;9.10;4.38;;;1.10;89.60;;;;;;5058468;28;20076;-74
2023/03/12 04:23:40;;;;;;;7.15;4.35;;;1.10;89.60;;;;;;5078867;28;20044;-74
2023/03/12 04:26:07;;;;;;;7.50;4.70;;;1.10;89.60;;;;;;5078702;28;20392;-74
2023/03/12 04:28:33;;;;;;;6.30;4.70;;;1.10;89.40;;;;;;5095613;28;20036;-75
2023/03/12 04:31:02;;;;;;;8.52;4.85;;;1.10;89.40;;;;;;5095623;28;20043;-74
2023/03/12 04:33:29;;;;;;;8.38;4.70;;;1.10;89.20;;;;;;5095245;28;20035;-74
2023/03/12 04:35:55;;;;;;;8.85;5.15;;;1.10;89.20;;;;;;5095133;28;20070;-74
2023/03/12 04:38:22;;;;;;;6.50;5.15;;;1.10;88.90;;;;;;5095668;28;20043;-74
2023/03/12 04:41:10;;;;;;;5.72;4.40;;;1.10;89.00;;;;;;5079551;28;20046;-74
2023/03/12 04:43:36;;;;;;;9.18;4.93;;;1.10;89.00;;;;;;5096987;28;20108;-74
2023/03/12 04:46:03;;;;;;;8.00;4.32;;;1.10;88.90;;;;;;5098143;28;20065;-73
2023/03/12 04:48:29;;;;;;;6.80;4.60;;;1.10;88.90;;;;;;5095847;28;20036;-74
2023/03/12 04:50:54;;;;;;;5.72;4.15;;;1.10;88.70;;;;;;5061482;28;20032;-74
2023/03/12 04:53:21;;;;;;;9.35;4.60;;;1.10;88.70;;;;;;5078199;28;20043;-74
2023/03/12 04:55:47;;;;;;;8.35;4.68;;;1.10;88.60;;;;;;5078083;28;20098;-75
2023/03/12 04:58:12;;;;;;;8.60;4.80;;;1.10;88.60;;;;;;5094807;28;20035;-75
2023/03/12 05:00:39;;;;;;;7.70;4.70;;;1.10;88.40;;;;;;5094999;28;20036;-74
2023/03/12 05:03:05;;;;;;;8.45;4.80;;;1.10;88.50;;;;;;5061025;28;20043;-74
2023/03/12 05:05:31;;;;;;;9.00;5.40;;;1.10;88.30;;;;;;5077729;28;20510;-74
2023/03/12 05:07:56;;;;;;;7.32;5.00;;;1.10;88.20;;;;;;5094614;28;20047;-73
2023/03/12 05:10:22;;;;;;;7.55;5.15;;;1.10;88.20;;;;;;5077611;28;20127;-74
2023/03/12 05:12:49;;;;;;;7.03;4.40;;;1.10;88.10;;;;;;5077900;28;20097;-74
2023/03/12 05:15:16;;;;;;;9.43;4.95;;;1.10;88.20;;;;;;5061176;28;20040;-73
2023/03/12 05:17:43;;;;;;;12.30;5.47;;;1.10;88.10;;;;;;5077847;28;20044;-74
2023/03/12 05:20:09;;;;;;;7.95;5.72;;;1.10;88.10;;;;;;5094501;28;20153;-75
2023/03/12 05:22:35;;;;;;;8.02;4.63;;;1.10;88.00;;;;;;5061023;28;20040;-74
2023/03/12 05:25:02;;;;;;;11.68;5.72;;;1.10;88.00;;;;;;5077585;28;20123;-75
2023/03/12 05:27:27;;;;;;;10.60;4.75;;;1.10;88.10;;;;;;5094190;28;20149;-74
2023/03/12 05:29:53;;;;;;;12.20;5.32;;;1.10;88.00;;;;;;5094292;28;20047;-74
2023/03/12 05:32:19;;;;;;;9.07;4.65;;;1.10;87.90;;;;;;5093856;28;20553;-74
2023/03/12 05:34:45;;;;;;;8.30;4.38;;;1.20;87.70;;;;;;5094471;28;20044;-75
2023/03/12 05:37:11;;;;;;;7.18;4.43;;;1.20;87.70;;;;;;5060480;28;20515;-75
2023/03/12 05:39:37;;;;;;;7.07;4.90;;;1.20;87.70;;;;;;5094360;28;20177;-75
2023/03/12 05:42:03;;;;;;;10.60;4.75;;;1.20;87.70;;;;;;5077318;28;20032;-74
2023/03/12 05:44:29;;;;;;;10.32;4.25;;;1.20;87.60;;;;;;5094169;28;20036;-74
2023/03/12 05:46:55;;;;;;;7.25;4.95;;;1.20;87.50;;;;;;5094009;28;20511;-75
2023/03/12 05:49:21;;;;;;;9.35;5.30;;;1.20;87.50;;;;;;5094036;28;20039;-75
2023/03/12 05:51:48;;;;;;;8.32;4.90;;;1.20;87.50;;;;;;5094007;28;20122;-74
2023/03/12 05:54:15;;;;;;;8.15;5.05;;;1.30;87.50;;;;;;5060538;28;20054;-75
2023/03/12 05:56:41;;;;;;;7.18;4.80;;;1.30;87.40;;;;;;5093869;28;20181;-75
2023/03/12 05:59:09;;;;;;;11.77;6.40;;;1.30;87.40;;;;;;5076843;28;20494;-74
2023/03/12 06:01:36;;;;;;;7.85;4.68;;;1.30;87.40;;;;;;5076864;28;20384;-74
2023/03/12 06:04:01;;;;;;;12.32;5.18;;;1.30;87.40;;;;;;5093206;28;20561;-74
2023/03/12 06:06:29;;;;;;;12.95;5.05;;;1.30;87.30;;;;;;5076884;28;20051;-74
2023/03/12 06:08:55;;;;;;;8.60;4.82;;;1.30;87.30;;;;;;5093291;28;20043;-74
2023/03/12 06:11:21;;;;;;;8.45;5.18;;;1.30;87.30;;;;;;5093298;28;20101;-76
2023/03/12 06:13:47;;;;;;;11.15;5.40;;;1.30;87.40;;;;;;5093237;28;20127;-75
2023/03/12 06:16:22;;;;;;;11.52;5.00;;;1.30;87.40;;;;;;5093255;28;20036;-76
2023/03/12 06:18:48;;;;;;;9.85;5.75;;;1.30;87.30;;;;;;5093393;28;20101;-74
2023/03/12 06:21:17;;;;;;;8.30;5.30;;;1.30;87.30;;;;;;5075998;28;20040;-74
2023/03/12 06:23:43;;;;;;;10.43;5.72;;;1.30;87.40;;;;;;5092960;28;20048;-74
2023/03/12 06:26:10;;;;;;;8.27;4.57;;;1.30;87.30;;;;;;5093024;28;20036;-73
2023/03/12 06:28:36;;;;;;;7.47;5.03;;;1.30;87.30;;;;;;5092802;28;20036;-74
2023/03/12 06:31:03;;;;;;;8.35;5.10;;;1.40;87.30;;;;;;5092639;28;20043;-74
2023/03/12 06:33:30;;;;;;;7.93;4.82;;;1.40;87.30;;;;;;5092754;28;20047;-73
2023/03/12 06:35:58;;;;;;;9.90;4.88;;;1.40;87.50;;;;;;5092456;28;20558;-73
2023/03/12 06:38:24;;;;;;;7.55;5.30;;;1.40;87.60;;;;;;5092428;28;20036;-73
2023/03/12 06:41:04;;;;;;;8.15;5.50;;;1.30;87.60;;;;;;5092592;28;20043;-74
2023/03/12 06:43:31;;;;;;;9.32;5.20;;;1.40;87.60;;;;;;5092594;28;20127;-74
2023/03/12 06:45:58;;;;;;;11.95;4.88;;;1.40;87.70;;;;;;5092072;28;20543;-73
2023/03/12 06:48:25;;;;;;;10.10;5.47;;;1.40;87.80;;;;;;5092605;28;20119;-75
2023/03/12 06:50:52;;;;;;;8.60;5.25;;;1.40;87.70;;;;;;5092593;28;20044;-74
2023/03/12 06:53:19;;;;;;;8.98;4.90;;;1.40;87.90;;;;;;5092386;28;20488;-74
2023/03/12 06:55:45;;;;;;;11.30;4.65;;;1.40;88.20;;;;;;5092439;28;20044;-74
2023/03/12 06:58:11;;;;;;;9.55;5.50;;;1.40;88.20;;;;;;5075775;28;20412;-75
2023/03/12 07:00:37;;;;;;;9.18;5.70;;;1.40;88.60;;;;;;5092439;28;20051;-74
2023/03/12 07:03:03;;;;;;;6.57;5.10;;;1.30;88.40;;;;;;5092203;28;20048;-75
2023/03/12 07:05:29;;;;;;;8.90;5.70;;;1.30;88.40;;;;;;5092486;28;20048;-74
2023/03/12 07:07:55;;;;;;;9.70;7.40;;;1.40;88.50;;;;;;5092402;28;20040;-74
2023/03/12 07:10:21;;;;;;;11.70;7.10;;;1.30;88.70;;;;;;5092395;28;20044;-75
2023/03/12 07:12:47;;;;;;;9.45;7.28;;;1.30;89.50;;;;;;5075554;28;20127;-73
2023/03/12 07:15:13;;;;;;;10.00;6.60;;;1.20;89.30;;;;;;5092622;28;20127;-74
2023/03/12 07:17:39;;;;;;;9.55;5.75;;;1.20;89.50;;;;;;5092151;28;20050;-73
2023/03/12 07:20:08;;;;;;;9.98;7.00;;;1.30;89.20;;;;;;5076014;28;20043;-74
2023/03/12 07:22:34;;;;;;;11.65;6.28;;;1.30;89.20;;;;;;5091992;28;20484;-74
2023/03/12 07:24:59;;;;;;;10.30;6.13;;;1.30;89.50;;;;;;5075212;28;20131;-73
2023/03/12 07:27:25;;;;;;;8.25;6.57;;;1.20;89.60;;;;;;5075195;28;20040;-74
2023/03/12 07:29:51;;;;;;;13.98;7.18;;;1.20;90.00;;;;;;5075508;28;20047;-74
2023/03/12 07:32:17;;;;;;;10.32;6.55;;;1.20;90.60;;;;;;5092102;28;20476;-74
2023/03/12 07:34:43;;;;;;;10.48;6.85;;;1.10;90.50;;;;;;5092210;28;20086;-74
2023/03/12 07:37:09;;;;;;;12.00;7.57;;;1.20;90.40;;;;;;5058473;28;20036;-74
2023/03/12 07:39:35;;;;;;;13.65;8.10;;;1.10;90.90;;;;;;5092132;28;20048;-74
2023/03/12 07:42:00;;;;;;;11.38;6.80;;;1.10;91.30;;;;;;5091824;28;20452;-73
2023/03/12 07:44:26;;;;;;;11.30;8.07;;;1.10;91.40;;;;;;5075209;28;20051;-73
2023/03/12 07:46:52;;;;;;;12.48;6.65;;;1.10;91.50;;;;;;5074907;28;20070;-74
2023/03/12 07:49:19;;;;;;;14.25;7.38;;;1.10;91.60;;;;;;5091916;28;20552;-74
2023/03/12 07:51:45;;;;;;;13.13;6.60;;;1.10;91.90;;;;;;5091717;28;20051;-73
2023/03/12 07:54:11;;;;;;;14.05;6.50;;;1.10;91.70;;;;;;5075003;28;20423;-75
2023/03/12 07:56:36;;;;;;;9.75;6.47;;;1.10;91.50;;;;;;5094548;28;20044;-75
2023/03/12 07:59:02;;;;;;;9.88;6.50;;;1.10;91.00;;;;;;5062477;28;20526;-75
2023/03/12 08:01:30;;;;;;;8.50;6.95;;;1.10;91.10;;;;;;5096129;28;20043;-75
2023/03/12 08:04:01;;;;;;;10.98;6.70;;;1.10;91.60;;;;;;5078685;28;20052;-74
2023/03/12 08:06:27;;;;;;;8.90;6.80;;;1.10;91.40;;;;;;5096007;28;20052;-75
2023/03/12 08:08:53;;;;;;;9.38;6.65;;;1.10;92.20;;;;;;5079162;28;20372;-75
2023/03/12 08:11:19;;;;;;;11.50;8.05;;;1.10;91.90;;;;;;5095734;28;20051;-75
2023/03/12 08:13:45;;;;;;;8.85;6.38;;;1.20;92.00;;;;;;5061943;28;20441;-74
2023/03/12 08:16:11;;;;;;;10.75;6.82;;;1.20;91.70;;;;;;5078563;28;20067;-75
2023/03/12 08:18:36;;;;;;;10.70;7.93;;;1.20;92.30;;;;;;5078892;28;20089;-75
2023/03/12 08:21:03;;;;;;;11.70;9.00;;;1.20;92.10;;;;;;5078590;28;20595;-75
2023/03/12 08:23:28;;;;;;;16.35;12.00;;;1.20;92.20;;;;;;5078530;28;20036;-74
2023/03/12 08:25:54;;;;;;;19.85;11.68;;;1.20;92.10;;;;;;5095534;28;20036;-75
2023/03/12 08:28:22;;;;;;;16.25;10.25;;;1.20;91.90;;;;;;5078729;28;20047;-75
2023/03/12 08:30:53;;;;;;;15.63;11.35;;;1.20;92.30;;;;;;5095314;28;20079;-75
2023/03/12 08:33:20;;;;;;;16.60;11.73;;;1.30;92.60;;;;;;5095481;28;20035;-75
2023/03/12 08:35:46;;;;;;;14.32;9.80;;;1.30;92.50;;;;;;5095681;28;20113;-75
2023/03/12 08:38:12;;;;;;;15.20;9.52;;;1.30;92.40;;;;;;5095185;28;20120;-74
2023/03/12 08:40:37;;;;;;;21.30;15.80;;;1.40;92.60;;;;;;5078144;28;20474;-74
2023/03/12 08:43:03;;;;;;;16.48;10.50;;;1.30;93.60;;;;;;5061574;28;20028;-75
2023/03/12 08:45:29;;;;;;;21.13;15.38;;;1.40;93.20;;;;;;5095000;28;20088;-75
2023/03/12 08:47:55;;;;;;;18.50;13.73;;;1.40;93.20;;;;;;5095295;28;20043;-74
2023/03/12 08:50:21;;;;;;;16.67;10.85;;;1.40;93.30;;;;;;5096534;28;20613;-77
2023/03/12 08:52:47;;;;;;;25.42;17.88;;;1.40;93.30;;;;;;5062748;28;20075;-76
2023/03/12 08:55:13;;;;;;;13.27;9.88;;;1.50;93.10;;;;;;5094810;28;20046;-76
2023/03/12 08:57:39;;;;;;;22.48;13.80;;;1.50;93.20;;;;;;5077740;28;20487;-76
2023/03/12 09:00:13;;;;;;;20.65;15.00;;;1.40;93.30;;;;;;5094746;28;20039;-76
2023/03/12 09:02:41;;;;;;;19.17;12.35;;;1.50;93.60;;;;;;5062158;28;20036;-76
2023/03/12 09:05:07;;;;;;;14.80;10.52;;;1.50;93.70;;;;;;5095216;28;20044;-77
2023/03/12 09:07:33;;;;;;;12.68;9.55;;;1.50;93.80;;;;;;5060592;28;20488;-76
2023/03/12 09:09:58;;;;;;;14.73;10.05;;;1.50;93.40;;;;;;5077782;28;20122;-77
2023/03/12 09:12:24;;;;;;;18.50;12.90;;;1.60;93.70;;;;;;5094721;28;20093;-77
2023/03/12 09:14:51;;;;;;;16.30;12.25;;;1.60;93.50;;;;;;5094306;28;20396;-76
2023/03/12 09:17:17;;;;;;;13.73;10.18;;;1.60;93.90;;;;;;5077562;28;20051;-77
2023/03/12 09:19:43;;;;;;;13.25;10.25;;;1.60;94.00;;;;;;5077681;28;20047;-77
2023/03/12 09:22:08;;;;;;;12.80;10.52;;;1.60;94.10;;;;;;5060980;28;20036;-77
2023/03/12 09:24:34;;;;;;;13.13;8.93;;;1.70;94.20;;;;;;5077490;28;20123;-77
2023/03/12 09:27:01;;;;;;;15.75;11.25;;;1.70;93.90;;;;;;5094352;28;20044;-77
2023/03/12 09:29:27;;;;;;;15.45;11.02;;;1.80;94.00;;;;;;5094314;28;20039;-77
2023/03/12 09:31:53;;;;;;;16.02;12.07;;;1.80;94.20;;;;;;5077353;28;20164;-77
2023/03/12 09:34:19;;;;;;;37.78;20.27;;;1.80;95.20;;;;;;5077577;28;20056;-76
2023/03/12 09:36:44;;;;;;;29.23;19.08;;;1.80;94.70;;;;;;5077347;28;20037;-78
2023/03/12 09:39:10;;;;;;;25.45;18.65;;;1.80;95.10;;;;;;5077070;28;20063;-78
2023/03/12 09:41:39;;;;;;;22.42;14.13;;;1.80;95.20;;;;;;5076800;28;20036;-77
2023/03/12 09:44:55;;;;;;;22.38;16.15;;;1.80;95.70;;;;;;5077119;28;20388;-77
2023/03/12 09:47:27;;;;;;;19.75;14.02;;;1.80;95.50;;;;;;4996474;28;20103;-78
2023/03/12 09:50:25;;;;;;;21.15;15.45;;;1.90;96.10;;;;;;5077201;28;20412;-76
2023/03/12 09:52:59;;;;;;;27.48;18.55;;;1.90;96.00;;;;;;5069774;28;20052;-77
2023/03/12 09:55:30;;;;;;;27.67;17.63;;;1.90;95.80;;;;;;5093478;28;20040;-78
2023/03/12 09:57:56;;;;;;;29.35;20.73;;;2.00;96.40;;;;;;5093451;28;20093;-76
2023/03/12 10:00:28;;;;;;;17.60;13.75;;;2.10;96.50;;;;;;5076641;28;20119;-78
2023/03/12 10:03:05;;;;;;;19.08;13.32;;;2.10;96.40;;;;;;5093353;28;20441;-77
2023/03/12 10:05:37;;;;;;;19.50;12.50;;;2.10;96.60;;;;;;5076655;28;20079;-77
2023/03/12 10:08:10;;;;;;;17.73;11.75;;;2.20;96.20;;;;;;5093458;28;20082;-77
2023/03/12 10:10:44;;;;;;;17.67;11.30;;;2.20;96.20;;;;;;5076729;28;20109;-77
2023/03/12 10:13:27;;;;;;;20.80;12.32;;;2.30;96.80;;;;;;5076498;28;20093;-76
2023/03/12 10:16:46;;;;;;;20.13;13.27;;;2.30;96.30;;;;;;5076812;28;20047;-77
2023/03/12 10:19:12;;;;;;;19.85;13.38;;;2.40;96.20;;;;;;5092830;28;20456;-76
2023/03/12 10:22:03;;;;;;;14.60;11.75;;;2.40;96.70;;;;;;5093264;28;20114;-76
2023/03/12 10:25:15;;;;;;;16.52;10.63;;;2.50;96.80;;;;;;5030175;28;20135;-78
2023/03/12 10:27:42;;;;;;;17.75;13.30;;;2.60;97.50;;;;;;5040413;28;20055;-78
2023/03/12 10:30:22;;;;;;;17.17;12.07;;;2.60;97.30;;;;;;5075968;28;20079;-77
2023/03/12 10:32:52;;;;;;;22.10;14.68;;;2.60;96.90;;;;;;5093227;28;20040;-77
2023/03/12 10:35:20;;;;;;;17.05;13.48;;;2.70;96.90;;;;;;5093097;28;20047;-77
2023/03/12 10:37:58;;;;;;;16.85;12.50;;;2.70;96.60;;;;;;5093214;28;20573;-77
2023/03/12 10:40:28;;;;;;;21.40;15.15;;;2.70;96.20;;;;;;5093296;28;20032;-76
2023/03/12 10:42:54;;;;;;;20.67;14.25;;;2.70;96.90;;;;;;5093081;28;20122;-77
2023/03/12 10:45:46;;;;;;;23.08;15.50;;;2.80;97.20;;;;;;5092860;28;20118;-77
2023/03/12 10:48:19;;;;;;;21.52;14.20;;;2.90;97.40;;;;;;5030459;28;20066;-77
2023/03/12 10:51:07;;;;;;;24.90;15.75;;;3.00;97.50;;;;;;5093298;28;20079;-76
2023/03/12 10:53:36;;;;;;;25.63;18.00;;;3.00;97.90;;;;;;5092578;28;20076;-77
2023/03/12 10:56:06;;;;;;;26.73;17.00;;;3.10;97.50;;;;;;5093022;28;20036;-78
2023/03/12 10:58:38;;;;;;;35.33;21.52;;;3.10;97.80;;;;;;5075806;28;20430;-78
2023/03/12 11:01:07;;;;;;;30.20;19.40;;;3.30;98.10;;;;;;5076072;28;20040;-78
2023/03/12 11:03:32;;;;;;;34.40;21.20;;;3.50;98.20;;;;;;5092525;28;20403;-77
2023/03/12 11:06:05;;;;;;;32.05;19.67;;;3.60;98.10;;;;;;5092800;28;20123;-77
2023/03/12 11:08:36;;;;;;;35.58;21.65;;;3.70;97.60;;;;;;5075724;28;20042;-77
2023/03/12 11:11:03;;;;;;;127.40;56.45;;;3.90;98.60;;;;;;5076194;28;20036;-77
2023/03/12 11:13:37;;;;;;;175.18;55.33;;;4.00;97.90;;;;;;5075734;28;20047;-78
2023/03/12 11:16:02;;;;;;;114.78;38.17;;;4.20;98.10;;;;;;5075945;28;20047;-78
2023/03/12 11:18:33;;;;;;;145.98;45.53;;;4.40;98.50;;;;;;5075508;28;20039;-78
2023/03/12 11:21:08;;;;;;;92.57;35.90;;;4.60;97.90;;;;;;5075644;28;20035;-78
2023/03/12 11:23:36;;;;;;;251.15;67.30;;;4.70;98.10;;;;;;5092562;28;20067;-78
2023/03/12 11:26:21;;;;;;;210.55;64.20;;;4.80;97.30;;;;;;5075693;28;20036;-76
2023/03/12 11:29:05;;;;;;;271.40;71.38;;;4.90;97.00;;;;;;5075515;28;20043;-78
2023/03/12 11:31:37;;;;;;;102.45;47.45;;;5.00;97.00;;;;;;5092076;28;20040;-77
2023/03/12 11:34:06;;;;;;;65.55;34.45;;;5.10;97.20;;;;;;5075520;28;20126;-78
2023/03/12 11:36:44;;;;;;;78.63;41.70;;;5.20;97.70;;;;;;5092042;28;20089;-77
2023/03/12 11:39:28;;;;;;;62.85;36.80;;;5.30;97.80;;;;;;5092102;28;20047;-77
2023/03/12 11:42:12;;;;;;;67.60;41.88;;;5.40;97.50;;;;;;5092241;28;20047;-77
2023/03/12 11:45:23;;;;;;;38.75;23.30;;;5.50;97.50;;;;;;5092375;28;20442;-77
2023/03/12 11:48:03;;;;;;;39.70;22.65;;;5.60;97.80;;;;;;5050435;28;20048;-78
2023/03/12 11:50:40;;;;;;;40.03;24.27;;;5.70;97.80;;;;;;5075576;28;20400;-78
2023/03/12 11:53:15;;;;;;;37.88;22.38;;;5.80;98.20;;;;;;5075564;28;20036;-77
2023/03/12 11:55:55;;;;;;;37.63;20.27;;;6.00;97.30;;;;;;5075303;28;20079;-78
2023/03/12 11:58:36;;;;;;;38.40;18.67;;;6.10;97.90;;;;;;5075228;28;20513;-78
2023/03/12 12:01:28;;;;;;;44.13;19.65;;;6.20;97.30;;;;;;5092315;28;20380;-78
2023/03/12 12:04:27;;;;;;;50.75;22.00;;;6.40;98.20;;;;;;5090959;28;20063;-79
2023/03/12 12:07:20;;;;;;;43.25;17.50;;;6.50;98.10;;;;;;5091969;28;20044;-79
2023/03/12 12:10:02;;;;;;;34.22;13.95;;;6.60;97.40;;;;;;5092044;28;20058;-78
2023/03/12 12:12:50;;;;;;;48.72;16.35;;;6.80;97.50;;;;;;5091929;28;20495;-78
2023/03/12 12:15:44;;;;;;;38.05;13.55;;;7.00;97.40;;;;;;5092246;28;20059;-79
2023/03/12 12:18:57;;;;;;;42.33;13.70;;;7.20;97.70;;;;;;5091969;28;20479;-78
2023/03/12 12:21:31;;;;;;;38.70;11.27;;;7.50;98.30;;;;;;4994752;28;20146;-79
2023/03/12 12:24:27;;;;;;;40.22;11.13;;;7.70;97.80;;;;;;5085287;28;20055;-78
2023/03/12 12:27:23;;;;;;;34.42;9.43;;;7.80;97.60;;;;;;5091756;28;20044;-78
2023/03/12 12:30:16;;;;;;;28.75;9.70;;;8.00;97.80;;;;;;5091927;28;20036;-78
2023/03/12 12:33:22;;;;;;;31.67;9.93;;;8.10;97.80;;;;;;5091963;28;20063;-78
2023/03/12 12:35:49;;;;;;;33.55;8.98;;;8.30;97.80;;;;;;5092062;28;20040;-78
2023/03/12 12:38:33;;;;;;;26.50;8.30;;;8.30;97.80;;;;;;5074825;28;20040;-78
2023/03/12 12:41:02;;;;;;;23.27;6.50;;;8.50;97.80;;;;;;5074958;28;20043;-78
2023/03/12 12:43:38;;;;;;;25.98;8.27;;;8.50;97.70;;;;;;5076770;28;20043;-78
2023/03/12 12:46:15;;;;;;;31.58;6.55;;;8.50;97.60;;;;;;5095763;28;20043;-78
2023/03/12 12:48:51;;;;;;;34.55;7.88;;;8.50;97.40;;;;;;5078665;28;20094;-78
2023/03/12 12:51:21;;;;;;;27.40;7.35;;;8.50;97.30;;;;;;5095320;28;20044;-79
2023/03/12 12:54:22;;;;;;;25.38;7.20;;;8.70;97.10;;;;;;5078360;28;20036;-78
2023/03/12 12:57:22;;;;;;;23.95;5.90;;;8.90;96.90;;;;;;5095101;28;20495;-78
2023/03/12 13:00:18;;;;;;;20.40;6.18;;;9.10;95.80;;;;;;5078421;28;20055;-79
2023/03/12 13:02:46;;;;;;;24.73;5.30;;;9.10;95.60;;;;;;5094771;28;20040;-79